createdAt,value
2019-03-21T00:01:41.514Z,97.20
2019-03-21T00:04:16.716Z,97.40
2019-03-21T00:06:51.285Z,97.60
2019-03-21T00:09:25.284Z,97.80
2019-03-21T00:12:04.094Z,97.90
2019-03-21T00:15:15.391Z,97.70
2019-03-21T00:18:06.424Z,97.80
2019-03-21T00:20:40.630Z,97.80
2019-03-21T00:23:15.311Z,97.90
2019-03-21T00:25:49.330Z,98.00
2019-03-21T00:28:23.861Z,97.90
2019-03-21T00:30:58.929Z,97.90
2019-03-21T00:33:33.420Z,98.00
2019-03-21T00:36:07.901Z,98.00
2019-03-21T00:38:42.158Z,98.10
2019-03-21T00:41:17.801Z,98.20
2019-03-21T00:43:54.389Z,98.20
2019-03-21T00:46:28.803Z,98.40
2019-03-21T00:49:03.206Z,98.30
2019-03-21T00:51:37.659Z,98.40
2019-03-21T00:54:11.987Z,98.40
2019-03-21T00:56:46.157Z,98.50
2019-03-21T00:59:23.749Z,98.60
2019-03-21T01:01:59.681Z,98.70
2019-03-21T01:04:35.858Z,98.80
2019-03-21T01:07:10.760Z,98.80
2019-03-21T01:09:44.890Z,98.90
2019-03-21T01:12:20.549Z,99.00
2019-03-21T01:14:54.920Z,98.80
2019-03-21T01:17:29.585Z,98.80
2019-03-21T01:20:03.968Z,98.90
2019-03-21T01:22:38.370Z,99.10
2019-03-21T01:25:18.449Z,98.90
2019-03-21T01:27:52.967Z,99.10
2019-03-21T01:30:27.295Z,99.20
2019-03-21T01:33:01.382Z,99.30
2019-03-21T01:35:35.923Z,99.40
2019-03-21T01:38:10.145Z,99.20
2019-03-21T01:40:46.194Z,99.40
2019-03-21T01:43:20.579Z,99.50
2019-03-21T01:45:55.294Z,99.60
2019-03-21T01:48:29.274Z,99.60
2019-03-21T01:51:03.741Z,99.70
2019-03-21T01:53:37.755Z,99.80
2019-03-21T01:56:13.212Z,99.80
2019-03-21T01:58:48.159Z,99.90
2019-03-21T02:01:38.114Z,99.90
2019-03-21T02:04:12.158Z,99.90
2019-03-21T02:06:47.751Z,99.90
2019-03-21T02:09:22.010Z,99.90
2019-03-21T02:11:56.632Z,99.90
2019-03-21T02:14:32.257Z,99.90
2019-03-21T02:17:06.432Z,99.90
2019-03-21T02:19:41.029Z,99.90
2019-03-21T02:22:15.271Z,99.90
2019-03-21T02:24:49.792Z,99.90
2019-03-21T02:27:23.786Z,99.90
2019-03-21T02:29:58.404Z,99.90
2019-03-21T02:32:32.870Z,99.90
2019-03-21T02:35:07.258Z,99.90
2019-03-21T02:37:41.983Z,99.90
2019-03-21T02:40:18.317Z,99.90
2019-03-21T02:42:53.001Z,99.90
2019-03-21T02:45:27.193Z,99.90
2019-03-21T02:48:01.618Z,99.90
2019-03-21T02:50:37.399Z,99.90
2019-03-21T02:53:12.313Z,99.90
2019-03-21T02:55:46.538Z,99.90
2019-03-21T02:58:21.354Z,99.90
2019-03-21T03:00:57.625Z,99.90
2019-03-21T03:03:31.801Z,99.90
2019-03-21T03:06:06.205Z,99.90
2019-03-21T03:08:40.975Z,99.90
2019-03-21T03:11:15.264Z,99.90
2019-03-21T03:13:51.710Z,99.90
2019-03-21T03:16:26.804Z,99.90
2019-03-21T03:19:00.996Z,99.90
2019-03-21T03:21:36.325Z,99.90
2019-03-21T03:24:10.965Z,99.90
2019-03-21T03:26:45.491Z,99.90
2019-03-21T03:29:20.108Z,99.90
2019-03-21T03:31:54.677Z,99.90
2019-03-21T03:34:29.013Z,99.90
2019-03-21T03:37:03.242Z,99.90
2019-03-21T03:39:37.924Z,99.90
2019-03-21T03:42:14.674Z,99.90
2019-03-21T03:44:49.127Z,99.90
2019-03-21T03:47:24.103Z,99.90
2019-03-21T03:49:58.907Z,99.90
2019-03-21T03:52:33.240Z,99.90
2019-03-21T03:55:07.864Z,99.90
2019-03-21T03:57:42.033Z,99.90
2019-03-21T04:00:18.428Z,99.90
2019-03-21T04:02:53.488Z,99.90
2019-03-21T04:05:28.108Z,99.90
2019-03-21T04:08:02.147Z,99.90
2019-03-21T04:10:38.781Z,99.90
2019-03-21T04:13:12.804Z,99.90
2019-03-21T04:15:53.278Z,99.90
2019-03-21T04:18:24.244Z,99.90
2019-03-21T04:20:58.917Z,99.90
2019-03-21T04:23:33.431Z,99.90
2019-03-21T04:26:16.574Z,99.90
2019-03-21T04:28:50.901Z,99.90
2019-03-21T04:31:25.726Z,99.90
2019-03-21T04:34:02.043Z,99.90
2019-03-21T04:36:36.521Z,99.90
2019-03-21T04:39:13.315Z,99.80
2019-03-21T04:41:47.694Z,99.70
2019-03-21T04:44:24.057Z,99.60
2019-03-21T04:46:58.413Z,99.70
2019-03-21T04:49:32.795Z,99.80
2019-03-21T04:52:07.421Z,99.20
2019-03-21T04:54:41.553Z,99.00
2019-03-21T04:57:16.106Z,98.50
2019-03-21T04:59:50.150Z,98.10
2019-03-21T05:02:24.968Z,98.20
2019-03-21T05:04:59.306Z,98.40
2019-03-21T05:07:33.781Z,98.60
2019-03-21T05:10:08.795Z,98.70
2019-03-21T05:12:43.563Z,98.70
2019-03-21T05:15:20.402Z,98.40
2019-03-21T05:17:55.719Z,98.10
2019-03-21T05:20:33.703Z,98.10
2019-03-21T05:23:08.159Z,97.70
2019-03-21T05:25:42.703Z,97.60
2019-03-21T05:28:17.019Z,97.70
2019-03-21T05:30:57.561Z,97.90
2019-03-21T05:33:32.265Z,98.00
2019-03-21T05:36:06.754Z,97.90
2019-03-21T05:38:41.160Z,97.70
2019-03-21T05:41:15.497Z,97.60
2019-03-21T05:43:53.912Z,97.30
2019-03-21T05:46:28.017Z,97.30
2019-03-21T05:49:03.375Z,97.00
2019-03-21T05:51:39.760Z,96.80
2019-03-21T05:54:14.873Z,96.40
2019-03-21T05:56:49.276Z,95.80
2019-03-21T05:59:23.885Z,95.00
2019-03-21T06:01:57.899Z,95.40
2019-03-21T06:04:32.415Z,95.70
2019-03-21T06:07:26.597Z,95.30
2019-03-21T06:10:06.911Z,95.20
2019-03-21T06:12:49.872Z,94.80
2019-03-21T06:15:27.520Z,94.40
2019-03-21T06:18:25.926Z,94.20
2019-03-21T06:21:23.854Z,94.30
2019-03-21T06:24:13.413Z,94.30
2019-03-21T06:27:01.765Z,94.00
2019-03-21T06:29:36.074Z,93.90
2019-03-21T06:32:13.037Z,93.40
2019-03-21T06:34:47.919Z,93.30
2019-03-21T06:37:25.145Z,92.90
2019-03-21T06:40:01.009Z,92.90
2019-03-21T06:42:35.838Z,92.50
2019-03-21T06:45:10.240Z,92.50
2019-03-21T06:47:45.666Z,92.70
2019-03-21T06:50:20.219Z,91.00
2019-03-21T06:52:55.199Z,90.60
2019-03-21T06:55:32.496Z,88.60
2019-03-21T06:58:08.589Z,87.00
2019-03-21T07:00:43.958Z,87.20
2019-03-21T07:03:18.924Z,86.70
2019-03-21T07:05:53.367Z,85.40
2019-03-21T07:08:28.048Z,84.80
2019-03-21T07:11:03.509Z,83.30
2019-03-21T07:13:38.214Z,83.40
2019-03-21T07:16:14.196Z,83.90
2019-03-21T07:18:50.494Z,82.60
2019-03-21T07:21:26.287Z,81.40
2019-03-21T07:24:00.819Z,79.00
2019-03-21T07:26:37.042Z,78.70
2019-03-21T07:29:14.899Z,78.40
2019-03-21T07:31:49.230Z,78.20
2019-03-21T07:34:24.816Z,77.10
2019-03-21T07:37:00.239Z,77.10
2019-03-21T07:39:37.703Z,76.20
2019-03-21T07:42:13.686Z,76.20
2019-03-21T07:44:50.678Z,75.60
2019-03-21T07:47:24.695Z,75.10
2019-03-21T07:50:00.362Z,73.90
2019-03-21T07:52:35.712Z,73.90
2019-03-21T07:55:11.995Z,73.70
2019-03-21T07:57:51.328Z,73.00
2019-03-21T08:00:27.615Z,74.20
2019-03-21T08:03:02.070Z,72.50
2019-03-21T08:05:40.562Z,72.50
2019-03-21T08:08:14.327Z,71.30
2019-03-21T08:10:51.515Z,70.20
2019-03-21T08:13:26.703Z,70.30
2019-03-21T08:16:02.311Z,69.90
2019-03-21T08:18:37.663Z,70.70
2019-03-21T08:21:14.169Z,69.30
2019-03-21T08:23:49.251Z,69.50
2019-03-21T08:26:28.368Z,68.40
2019-03-21T08:29:03.225Z,68.90
2019-03-21T08:31:38.852Z,68.40
2019-03-21T08:34:15.400Z,67.70
2019-03-21T08:36:51.132Z,66.60
2019-03-21T08:39:27.186Z,66.60
2019-03-21T08:42:02.843Z,66.60
2019-03-21T08:44:37.952Z,65.00
2019-03-21T08:47:13.262Z,65.30
2019-03-21T08:49:48.892Z,64.30
2019-03-21T08:52:24.941Z,64.20
2019-03-21T08:55:02.715Z,63.50
2019-03-21T08:57:38.768Z,63.90
2019-03-21T09:00:15.652Z,64.30
2019-03-21T09:02:52.757Z,62.30
2019-03-21T09:05:33.094Z,62.50
2019-03-21T09:08:12.828Z,63.00
2019-03-21T09:10:51.339Z,62.10
2019-03-21T09:13:26.828Z,60.90
2019-03-21T09:16:03.416Z,59.80
2019-03-21T09:18:39.144Z,60.30
2019-03-21T09:21:19.778Z,59.90
2019-03-21T09:24:02.057Z,60.50
2019-03-21T09:26:51.008Z,60.10
2019-03-21T09:29:27.813Z,59.00
2019-03-21T09:32:07.466Z,59.50
2019-03-21T09:34:42.300Z,60.00
2019-03-21T09:37:17.578Z,60.20
2019-03-21T09:39:53.991Z,59.50
2019-03-21T09:42:35.227Z,60.60
2019-03-21T09:45:11.900Z,60.00
2019-03-21T09:47:50.906Z,59.50
2019-03-21T09:50:31.720Z,58.90
2019-03-21T09:53:10.516Z,58.80
2019-03-21T09:55:53.762Z,58.40
2019-03-21T09:58:29.134Z,57.70
2019-03-21T10:01:05.048Z,58.20
2019-03-21T10:03:42.460Z,58.10
2019-03-21T10:06:21.579Z,58.10
2019-03-21T10:09:02.283Z,57.50
2019-03-21T10:11:40.781Z,56.50
2019-03-21T10:14:21.430Z,56.30
2019-03-21T10:16:57.221Z,55.90
2019-03-21T10:19:32.226Z,55.70
2019-03-21T10:22:10.314Z,55.60
2019-03-21T10:24:56.654Z,54.90
2019-03-21T10:27:35.883Z,54.10
2019-03-21T10:30:22.419Z,53.50
2019-03-21T10:32:59.440Z,54.40
2019-03-21T10:35:35.137Z,54.30
2019-03-21T10:38:16.631Z,54.00
2019-03-21T10:40:54.435Z,53.00
2019-03-21T10:43:31.629Z,54.10
2019-03-21T10:46:08.188Z,54.00
2019-03-21T10:48:44.183Z,52.20
2019-03-21T10:51:19.282Z,52.20
2019-03-21T10:53:56.078Z,52.50
2019-03-21T10:56:37.681Z,51.50
2019-03-21T10:59:13.506Z,52.00
2019-03-21T11:01:49.558Z,50.80
2019-03-21T11:04:26.782Z,50.40
2019-03-21T11:07:03.196Z,50.20
2019-03-21T11:09:42.823Z,51.40
2019-03-21T11:12:22.661Z,50.40
2019-03-21T11:15:24.106Z,51.10
2019-03-21T11:18:06.986Z,50.90
2019-03-21T11:20:45.251Z,50.00
2019-03-21T11:23:23.497Z,49.30
2019-03-21T11:26:01.208Z,48.60
2019-03-21T11:28:38.368Z,48.00
2019-03-21T11:31:17.156Z,48.90
2019-03-21T11:33:54.553Z,48.80
2019-03-21T11:36:38.184Z,48.30
2019-03-21T11:39:11.725Z,47.90
2019-03-21T11:41:49.164Z,46.90
2019-03-21T11:44:43.328Z,46.70
2019-03-21T11:47:22.328Z,46.70
2019-03-21T11:49:59.670Z,48.00
2019-03-21T11:52:35.595Z,47.20
2019-03-21T11:55:43.390Z,46.20
2019-03-21T11:58:19.954Z,46.80
2019-03-21T12:00:56.036Z,46.10
2019-03-21T12:03:40.875Z,46.20
2019-03-21T12:06:15.724Z,45.40
2019-03-21T12:08:52.825Z,46.10
2019-03-21T12:11:28.189Z,45.60
2019-03-21T12:14:06.079Z,45.50
2019-03-21T12:16:42.033Z,44.20
2019-03-21T12:19:18.550Z,45.50
2019-03-21T12:21:55.138Z,45.20
2019-03-21T12:24:30.559Z,45.10
2019-03-21T12:27:09.521Z,44.90
2019-03-21T12:29:45.884Z,44.60
2019-03-21T12:32:20.718Z,44.50
2019-03-21T12:34:56.475Z,44.70
2019-03-21T12:37:32.566Z,44.30
2019-03-21T12:40:11.734Z,44.60
2019-03-21T12:42:48.608Z,44.40
2019-03-21T12:45:24.420Z,43.70
2019-03-21T12:48:00.144Z,44.00
2019-03-21T12:50:35.331Z,44.30
2019-03-21T12:53:13.725Z,43.30
2019-03-21T12:56:05.700Z,43.40
2019-03-21T12:58:40.654Z,44.20
2019-03-21T13:01:17.945Z,44.30
2019-03-21T13:03:53.707Z,43.30
2019-03-21T13:06:30.843Z,43.20
2019-03-21T13:09:12.037Z,43.20
2019-03-21T13:11:47.125Z,43.10
2019-03-21T13:14:24.136Z,43.60
2019-03-21T13:16:59.872Z,42.80
2019-03-21T13:19:34.529Z,43.00
2019-03-21T13:22:12.381Z,44.00
2019-03-21T13:24:48.156Z,42.40
2019-03-21T13:27:24.182Z,42.90
2019-03-21T13:30:03.486Z,42.10
2019-03-21T13:32:39.556Z,42.10
2019-03-21T13:35:31.517Z,41.50
2019-03-21T13:37:58.008Z,42.10
2019-03-21T13:40:34.226Z,42.70
2019-03-21T13:43:11.300Z,42.20
2019-03-21T13:45:46.158Z,42.00
2019-03-21T13:48:23.651Z,41.80
2019-03-21T13:50:57.646Z,41.30
2019-03-21T13:53:33.454Z,41.20
2019-03-21T13:56:10.362Z,41.00
2019-03-21T13:58:46.717Z,41.10
2019-03-21T14:01:24.098Z,41.30
2019-03-21T14:04:01.909Z,41.40
2019-03-21T14:06:37.436Z,42.10
2019-03-21T14:09:15.295Z,41.90
2019-03-21T14:11:50.305Z,41.70
2019-03-21T14:14:26.108Z,41.30
2019-03-21T14:17:21.570Z,41.00
2019-03-21T14:19:49.623Z,40.40
2019-03-21T14:22:24.731Z,40.90
2019-03-21T14:25:04.523Z,41.00
2019-03-21T14:27:40.068Z,41.20
2019-03-21T14:30:16.744Z,40.90
2019-03-21T14:32:51.911Z,41.00
2019-03-21T14:35:28.524Z,40.40
2019-03-21T14:38:03.061Z,40.70
2019-03-21T14:40:42.366Z,41.00
2019-03-21T14:43:16.860Z,40.80
2019-03-21T14:45:53.604Z,41.10
2019-03-21T14:48:28.444Z,39.70
2019-03-21T14:51:04.168Z,40.00
2019-03-21T14:53:41.173Z,39.70
2019-03-21T14:56:16.076Z,40.00
2019-03-21T14:58:50.497Z,39.70
2019-03-21T15:01:26.100Z,39.50
2019-03-21T15:04:01.295Z,39.80
2019-03-21T15:06:36.414Z,40.00
2019-03-21T15:09:10.357Z,39.80
2019-03-21T15:11:45.887Z,39.70
2019-03-21T15:14:23.505Z,39.80
2019-03-21T15:16:58.565Z,39.70
2019-03-21T15:19:33.687Z,40.00
2019-03-21T15:22:09.126Z,39.70
2019-03-21T15:24:44.442Z,39.20
2019-03-21T15:27:20.118Z,39.40
2019-03-21T15:29:55.879Z,39.50
2019-03-21T15:32:32.719Z,39.20
2019-03-21T15:35:09.456Z,39.70
2019-03-21T15:37:46.640Z,39.90
2019-03-21T15:40:21.320Z,39.70
2019-03-21T15:42:57.414Z,39.70
2019-03-21T15:45:31.780Z,39.80
2019-03-21T15:48:08.818Z,39.90
2019-03-21T15:50:43.488Z,39.70
2019-03-21T15:53:18.726Z,39.70
2019-03-21T15:55:55.393Z,40.80
2019-03-21T15:58:31.224Z,40.00
2019-03-21T16:01:07.711Z,39.70
2019-03-21T16:03:42.210Z,39.50
2019-03-21T16:06:29.397Z,39.80
2019-03-21T16:09:04.844Z,40.00
2019-03-21T16:11:40.008Z,39.90
2019-03-21T16:14:17.248Z,39.60
2019-03-21T16:16:52.038Z,39.90
2019-03-21T16:19:26.708Z,40.00
2019-03-21T16:22:05.109Z,39.80
2019-03-21T16:24:40.653Z,39.70
2019-03-21T16:27:22.959Z,40.10
2019-03-21T16:30:00.038Z,40.40
2019-03-21T16:32:35.723Z,40.10
2019-03-21T16:35:12.016Z,40.60
2019-03-21T16:37:45.483Z,42.10
2019-03-21T16:40:19.923Z,42.30
2019-03-21T16:42:54.104Z,42.30
2019-03-21T16:45:30.334Z,43.20
2019-03-21T16:48:10.276Z,43.10
2019-03-21T16:50:45.430Z,43.70
2019-03-21T16:53:20.117Z,43.90
2019-03-21T16:55:57.353Z,44.40
2019-03-21T16:58:32.046Z,44.70
2019-03-21T17:01:07.059Z,44.70
2019-03-21T17:03:42.633Z,45.20
2019-03-21T17:06:20.548Z,45.20
2019-03-21T17:08:54.455Z,45.40
2019-03-21T17:11:29.010Z,45.70
2019-03-21T17:14:05.026Z,45.90
2019-03-21T17:16:40.534Z,45.90
2019-03-21T17:19:16.587Z,45.90
2019-03-21T17:21:52.169Z,46.10
2019-03-21T17:24:29.583Z,46.20
2019-03-21T17:27:03.328Z,46.30
2019-03-21T17:29:37.192Z,46.50
2019-03-21T17:32:13.412Z,47.40
2019-03-21T17:34:50.434Z,47.00
2019-03-21T17:37:24.985Z,47.30
2019-03-21T17:40:00.409Z,47.40
2019-03-21T17:42:36.710Z,47.00
2019-03-21T17:45:13.001Z,47.40
2019-03-21T17:47:48.789Z,47.90
2019-03-21T17:50:24.769Z,48.20
2019-03-21T17:52:59.872Z,48.10
2019-03-21T17:55:34.289Z,48.40
2019-03-21T17:58:10.603Z,48.30
2019-03-21T18:00:46.399Z,48.30
2019-03-21T18:03:21.227Z,48.70
2019-03-21T18:05:55.616Z,48.50
2019-03-21T18:08:32.651Z,49.00
2019-03-21T18:11:06.974Z,49.00
2019-03-21T18:13:48.138Z,49.00
2019-03-21T18:16:24.148Z,49.10
2019-03-21T18:19:01.986Z,49.20
2019-03-21T18:21:37.558Z,49.00
2019-03-21T18:24:11.100Z,49.50
2019-03-21T18:26:46.040Z,49.50
2019-03-21T18:29:21.306Z,49.80
2019-03-21T18:31:56.564Z,49.20
2019-03-21T18:34:32.126Z,48.90
2019-03-21T18:37:07.638Z,49.00
2019-03-21T18:39:43.233Z,49.20
2019-03-21T18:42:19.537Z,49.50
2019-03-21T18:44:55.741Z,49.50
2019-03-21T18:47:33.299Z,49.60
2019-03-21T18:50:09.596Z,49.90
2019-03-21T18:52:44.256Z,49.90
2019-03-21T18:55:19.100Z,50.20
2019-03-21T18:57:53.442Z,50.20
2019-03-21T19:00:31.958Z,49.70
2019-03-21T19:03:09.284Z,49.70
2019-03-21T19:05:46.255Z,49.70
2019-03-21T19:08:25.784Z,49.80
2019-03-21T19:11:01.896Z,49.40
2019-03-21T19:13:36.224Z,49.30
2019-03-21T19:16:13.970Z,49.40
2019-03-21T19:18:48.877Z,49.60
2019-03-21T19:21:24.340Z,49.40
2019-03-21T19:23:58.328Z,49.10
2019-03-21T19:26:33.207Z,49.30
2019-03-21T19:29:07.558Z,49.20
2019-03-21T19:31:41.719Z,49.30
2019-03-21T19:34:17.936Z,49.00
2019-03-21T19:36:53.816Z,49.40
2019-03-21T19:39:28.342Z,50.00
2019-03-21T19:42:05.708Z,49.70
2019-03-21T19:44:41.580Z,49.70
2019-03-21T19:47:24.238Z,49.70
2019-03-21T19:49:53.279Z,49.50
2019-03-21T19:52:28.529Z,49.90
2019-03-21T19:55:05.923Z,49.90
2019-03-21T19:57:41.382Z,50.00
2019-03-21T20:00:18.324Z,50.00
2019-03-21T20:03:00.650Z,49.90
2019-03-21T20:05:36.438Z,50.00
2019-03-21T20:08:11.060Z,50.00
2019-03-21T20:10:45.624Z,50.10
2019-03-21T20:13:21.380Z,50.00
2019-03-21T20:15:55.682Z,50.20
2019-03-21T20:18:30.937Z,50.10
2019-03-21T20:21:05.529Z,50.20
2019-03-21T20:23:41.326Z,50.10
2019-03-21T20:26:15.743Z,49.90
2019-03-21T20:28:51.318Z,49.80
2019-03-21T20:31:27.694Z,49.60
2019-03-21T20:34:03.481Z,50.10
2019-03-21T20:36:45.354Z,50.00
2019-03-21T20:39:21.415Z,50.60
2019-03-21T20:41:55.614Z,50.90
2019-03-21T20:44:30.171Z,51.00
2019-03-21T20:47:05.906Z,51.30
2019-03-21T20:49:43.396Z,51.10
2019-03-21T20:52:17.963Z,51.70
2019-03-21T20:54:54.899Z,52.10
2019-03-21T20:57:30.984Z,52.30
2019-03-21T21:00:06.743Z,52.40
2019-03-21T21:02:42.899Z,52.20
2019-03-21T21:05:17.548Z,52.70
2019-03-21T21:07:51.813Z,52.80
2019-03-21T21:10:26.795Z,52.80
2019-03-21T21:13:01.128Z,53.40
2019-03-21T21:15:36.386Z,53.30
2019-03-21T21:18:11.015Z,53.40
2019-03-21T21:20:50.138Z,53.20
2019-03-21T21:23:27.038Z,53.40
2019-03-21T21:26:05.674Z,53.70
2019-03-21T21:28:55.011Z,53.80
2019-03-21T21:31:29.977Z,53.80
2019-03-21T21:34:06.317Z,54.00
2019-03-21T21:36:41.030Z,54.10
2019-03-21T21:39:15.285Z,54.30
2019-03-21T21:41:50.754Z,54.30
2019-03-21T21:44:25.527Z,54.30
2019-03-21T21:47:01.051Z,54.40
2019-03-21T21:49:35.636Z,54.30
2019-03-21T21:52:10.486Z,54.60
2019-03-21T21:54:49.148Z,54.80
2019-03-21T21:57:24.610Z,54.80
2019-03-21T21:59:58.926Z,55.00
2019-03-21T22:02:33.317Z,55.10
2019-03-21T22:05:08.694Z,54.90
2019-03-21T22:07:42.951Z,55.30
2019-03-21T22:10:17.693Z,55.30
2019-03-21T22:12:52.548Z,55.20
2019-03-21T22:15:27.670Z,54.70
2019-03-21T22:18:03.557Z,55.80
2019-03-21T22:20:38.245Z,56.20
2019-03-21T22:23:13.396Z,56.20
2019-03-21T22:25:49.393Z,56.60
2019-03-21T22:28:24.242Z,56.80
2019-03-21T22:30:59.127Z,56.20
2019-03-21T22:33:34.386Z,54.00
2019-03-21T22:36:08.446Z,54.60
2019-03-21T22:38:43.464Z,55.20
2019-03-21T22:41:27.174Z,55.10
2019-03-21T22:44:02.855Z,55.10
2019-03-21T22:46:37.837Z,53.70
2019-03-21T22:49:13.305Z,54.20
2019-03-21T22:51:47.681Z,54.50
2019-03-21T22:54:22.778Z,54.60
2019-03-21T22:56:58.150Z,54.30
2019-03-21T22:59:32.818Z,54.40
2019-03-21T23:02:07.002Z,54.40
2019-03-21T23:04:41.888Z,54.60
2019-03-21T23:07:16.420Z,54.80
2019-03-21T23:09:51.024Z,54.90
2019-03-21T23:12:25.714Z,55.30
2019-03-21T23:15:00.343Z,55.30
2019-03-21T23:17:34.930Z,55.40
2019-03-21T23:20:10.267Z,55.70
2019-03-21T23:22:45.921Z,56.10
2019-03-21T23:25:20.324Z,56.40
2019-03-21T23:27:57.560Z,56.70
2019-03-21T23:30:33.525Z,56.90
2019-03-21T23:33:09.118Z,57.20
2019-03-21T23:35:43.833Z,57.80
2019-03-21T23:38:19.024Z,57.80
2019-03-21T23:40:53.558Z,58.40
2019-03-21T23:43:27.911Z,59.00
2019-03-21T23:46:03.173Z,59.20
2019-03-21T23:48:37.184Z,59.30
2019-03-21T23:51:11.850Z,60.00
2019-03-21T23:53:46.512Z,59.30
2019-03-21T23:56:21.070Z,59.80
2019-03-21T23:58:57.504Z,59.80
